»·PEaware :: AMX1630 KSFO-KLAX

AMX1630 :: KSFO-KLAX

FLIGHT INFORMATION

Flight Status: Arrived
Operator:
Aeromexico
More flights by this operator :: More flights under this callsign
Pilot: Alfredo R. (12181)
Aircraft: BOEING 737-800
(B738)
More flights by this aircraft type
Origin: KSFO San Francisco Intl
United States
Destination: KLAX Los Angeles Intl
United States
More flights between these airports :: More routes between these airports
Route: +SSTIK3 EBAYE BURGL IRNMN1
File this flight plan on PilotEdge
Remarks:
Altitude:
(Current/Filed)
31,000ft
Speed:
(Current/Filed)
430kts
Departed: 05-Jan-18 09:20 PM
Arrived: 05-Jan-18 10:22 PM
Distance/Time
Traveled:
293nm/1:01
Distance/Time
To Go:
Arrived

Flight Plot

Page will automatically refresh every two minutes.

Flight plan parsing failed; only flown route is shown


Map Options




Map Legend


Flown Route
Filed Route
Departure Airport
Arrival Airport
Navaid (VOR, NDB)
Fix

Horizontal Profiles

Position Reports

Time Latitude Longitude Heading Altitude Ground
Speed
05-Jan-18 20:58 37.615110 -122.381839 263 30ft 0kts
05-Jan-18 20:59 37.615110 -122.381839 263 30ft 0kts
05-Jan-18 21:00 37.615110 -122.381839 263 30ft 0kts
05-Jan-18 21:01 37.615110 -122.381839 263 30ft 0kts
05-Jan-18 21:02 37.615110 -122.381839 263 30ft 0kts
05-Jan-18 21:03 37.615110 -122.381839 263 30ft 0kts
05-Jan-18 21:04 37.615110 -122.381839 263 30ft 0kts
05-Jan-18 21:05 37.615110 -122.381839 263 30ft 0kts
05-Jan-18 21:06 37.615110 -122.381839 263 30ft 0kts
05-Jan-18 21:07 37.615110 -122.381839 263 30ft 0kts
05-Jan-18 21:08 37.615110 -122.381839 263 30ft 0kts
05-Jan-18 21:09 37.615110 -122.381839 263 30ft 0kts
05-Jan-18 21:10 37.615110 -122.381839 263 30ft 0kts
05-Jan-18 21:11 37.615110 -122.381839 263 30ft 0kts
05-Jan-18 21:12 37.615110 -122.381839 263 30ft 0kts
05-Jan-18 21:13 37.615155 -122.381614 243 30ft 2kts
05-Jan-18 21:14 37.615569 -122.381230 177 31ft 2kts
05-Jan-18 21:15 37.615853 -122.381491 116 31ft 0kts
05-Jan-18 21:16 37.615853 -122.381490 116 30ft 0kts
05-Jan-18 21:17 37.615853 -122.381490 116 30ft 0kts
05-Jan-18 21:18 37.615853 -122.381490 116 30ft 0kts
05-Jan-18 21:19 37.615712 -122.381157 118 30ft 0kts
05-Jan-18 21:20 37.615712 -122.381157 118 30ft 0kts
05-Jan-18 21:21 37.615589 -122.380861 118 30ft 3kts
05-Jan-18 21:22 37.614189 -122.380940 151 30ft 9kts
05-Jan-18 21:23 37.611214 -122.382310 206 30ft 14kts
05-Jan-18 21:24 37.609149 -122.383424 148 30ft 0kts
05-Jan-18 21:25 37.608938 -122.382303 43 28ft 8kts
05-Jan-18 21:26 37.614149 -122.378812 27 28ft 71kts
05-Jan-18 21:27 37.649563 -122.355736 24 866ft 163kts
05-Jan-18 21:28 37.686269 -122.366696 263 2074ft 177kts
05-Jan-18 21:29 37.645078 -122.399263 204 3814ft 200kts
05-Jan-18 21:30 37.583437 -122.429291 204 5501ft 253kts
05-Jan-18 21:31 37.517909 -122.460350 194 8221ft 261kts
05-Jan-18 21:32 37.451946 -122.420433 141 10494ft 299kts
05-Jan-18 21:33 37.390763 -122.341742 139 12622ft 324kts
05-Jan-18 21:34 37.328185 -122.259027 140 14950ft 336kts
05-Jan-18 21:35 37.262769 -122.172248 142 17425ft 353kts
05-Jan-18 21:36 37.196286 -122.083982 142 19797ft 368kts
05-Jan-18 21:37 37.125106 -121.989346 141 22095ft 383kts
05-Jan-18 21:38 37.051144 -121.890898 141 24238ft 396kts
05-Jan-18 21:39 36.975004 -121.789440 141 26252ft 407kts
05-Jan-18 21:40 36.897894 -121.686527 142 28490ft 406kts
05-Jan-18 21:41 36.822177 -121.585412 142 30585ft 401kts
05-Jan-18 21:42 36.744833 -121.482227 142 31288ft 425kts
05-Jan-18 21:43 36.661159 -121.370256 141 31276ft 463kts
05-Jan-18 21:44 36.573604 -121.252777 142 31254ft 467kts
05-Jan-18 21:45 36.484940 -121.133767 141 31253ft 470kts
05-Jan-18 21:46 36.397350 -121.013352 139 31254ft 472kts
05-Jan-18 21:47 36.311475 -120.890861 140 31245ft 472kts
05-Jan-18 21:48 36.225482 -120.768773 139 31247ft 472kts
05-Jan-18 21:49 36.139500 -120.646558 139 31247ft 473kts
05-Jan-18 21:50 36.054649 -120.525798 139 31304ft 473kts
05-Jan-18 21:51 35.968107 -120.402487 139 32387ft 480kts
05-Jan-18 21:52 35.881983 -120.279451 141 33245ft 473kts
05-Jan-18 21:53 35.778854 -120.192358 159 33242ft 451kts
05-Jan-18 21:54 35.672354 -120.112465 158 33246ft 447kts
05-Jan-18 21:55 35.567238 -120.033344 158 33246ft 447kts
05-Jan-18 21:56 35.462115 -119.954361 157 33238ft 447kts
05-Jan-18 21:57 35.356693 -119.875167 158 33265ft 446kts
05-Jan-18 21:58 35.256107 -119.794431 151 33225ft 453kts
05-Jan-18 21:59 35.156463 -119.700899 151 33221ft 455kts
05-Jan-18 22:00 35.062511 -119.613306 152 33177ft 421kts
05-Jan-18 22:01 34.967489 -119.524975 151 33093ft 437kts
05-Jan-18 22:02 34.873584 -119.438781 152 31417ft 422kts
05-Jan-18 22:03 34.777458 -119.352976 150 29710ft 432kts
05-Jan-18 22:04 34.683082 -119.269866 151 27735ft 419kts
05-Jan-18 22:05 34.590850 -119.189996 151 25307ft 410kts
05-Jan-18 22:06 34.502173 -119.112207 150 22855ft 398kts
05-Jan-18 22:07 34.414447 -119.034950 150 20360ft 385kts
05-Jan-18 22:08 34.330168 -118.961793 148 17892ft 374kts
05-Jan-18 22:09 34.249321 -118.888225 147 15546ft 354kts
05-Jan-18 22:10 34.178312 -118.822879 147 13883ft 303kts
05-Jan-18 22:11 34.116352 -118.758088 142 12373ft 293kts
05-Jan-18 22:12 34.057674 -118.694122 141 11046ft 285kts
05-Jan-18 22:13 34.024769 -118.611302 98 9874ft 287kts
05-Jan-18 22:14 34.016258 -118.521245 98 8687ft 256kts
05-Jan-18 22:15 34.012891 -118.437793 79 7785ft 250kts
05-Jan-18 22:16 34.027305 -118.356873 80 6900ft 246kts
05-Jan-18 22:17 34.037455 -118.279744 82 6030ft 242kts
05-Jan-18 22:18 34.047565 -118.200709 82 5123ft 237kts
05-Jan-18 22:19 34.056657 -118.125662 82 4990ft 225kts
05-Jan-18 22:20 34.040582 -118.062145 150 4994ft 204kts
05-Jan-18 22:21 33.994477 -118.062076 230 4838ft 194kts
05-Jan-18 22:22 33.965557 -118.114370 258 3926ft 192kts
05-Jan-18 22:23 33.959848 -118.162690 261 3464ft 166kts
05-Jan-18 22:24 33.953669 -118.224204 261 2695ft 158kts
05-Jan-18 22:25 33.948706 -118.272948 262 1897ft 138kts
05-Jan-18 22:26 33.944794 -118.311134 261 1299ft 139kts
05-Jan-18 22:27 33.939250 -118.364874 262 430ft 133kts
05-Jan-18 22:28 33.936223 -118.394446 261 108ft 31kts
05-Jan-18 22:29 33.936544 -118.399541 289 115ft 13kts
05-Jan-18 22:30 33.937644 -118.404237 349 121ft 11kts
05-Jan-18 22:31 33.938722 -118.402889 15 119ft 5kts
05-Jan-18 22:32 33.940575 -118.403153 329 119ft 2kts
05-Jan-18 22:33 33.940672 -118.403693 259 119ft 0kts
05-Jan-18 22:34 33.940657 -118.403789 259 119ft 0kts
05-Jan-18 22:35 33.940657 -118.403789 259 119ft 0kts

Navigation Log

Ident Type
Flight plan parsing failed, navigation log unavailable